sensor_id;sensor_type;location;lat;lon;timestamp;pressure;altitude;pressure_sealevel;temperature;humidity
58973;BME280;44750;52.040;7.472;2023-04-01T00:04:26;98916.53;;;10.14;0.00
58973;BME280;44750;52.040;7.472;2023-04-01T00:09:26;98912.13;;;10.13;0.00
58973;BME280;44750;52.040;7.472;2023-04-01T00:14:26;98917.53;;;10.13;0.00
58973;BME280;44750;52.040;7.472;2023-04-01T00:19:26;98927.69;;;10.11;0.00
58973;BME280;44750;52.040;7.472;2023-04-01T00:24:27;98931.44;;;10.10;0.00
58973;BME280;44750;52.040;7.472;2023-04-01T00:29:28;98946.63;;;10.11;0.00
58973;BME280;44750;52.040;7.472;2023-04-01T00:34:28;98944.06;;;10.03;0.00
58973;BME280;44750;52.040;7.472;2023-04-01T00:39:29;98947.41;;;10.05;0.00
58973;BME280;44750;52.040;7.472;2023-04-01T00:44:32;98948.19;;;9.99;0.00
58973;BME280;44750;52.040;7.472;2023-04-01T00:49:37;98957.97;;;10.00;0.00
58973;BME280;44750;52.040;7.472;2023-04-01T00:54:40;98962.72;;;9.98;0.00
58973;BME280;44750;52.040;7.472;2023-04-01T00:59:44;98977.72;;;10.00;0.00
58973;BME280;44750;52.040;7.472;2023-04-01T01:04:45;98990.69;;;10.05;0.00
58973;BME280;44750;52.040;7.472;2023-04-01T01:15:24;99003.34;;;10.04;0.00
58973;BME280;44750;52.040;7.472;2023-04-01T01:20:55;99006.91;;;10.05;0.00
58973;BME280;44750;52.040;7.472;2023-04-01T01:31:24;99034.75;;;10.06;0.00
58973;BME280;44750;52.040;7.472;2023-04-01T01:36:29;99027.22;;;10.01;0.00
58973;BME280;44750;52.040;7.472;2023-04-01T01:41:31;99048.34;;;10.12;0.00
58973;BME280;44750;52.040;7.472;2023-04-01T01:46:32;99048.34;;;10.12;0.00
58973;BME280;44750;52.040;7.472;2023-04-01T01:51:33;99041.06;;;10.13;0.00
58973;BME280;44750;52.040;7.472;2023-04-01T01:56:34;99032.25;;;10.04;0.00
58973;BME280;44750;52.040;7.472;2023-04-01T02:01:39;99065.53;;;10.26;0.00
58973;BME280;44750;52.040;7.472;2023-04-01T02:06:44;99049.91;;;10.21;0.00
58973;BME280;44750;52.040;7.472;2023-04-01T02:11:51;99040.91;;;10.14;0.00
58973;BME280;44750;52.040;7.472;2023-04-01T02:17:06;99035.84;;;10.11;0.00
58973;BME280;44750;52.040;7.472;2023-04-01T02:22:11;99026.19;;;10.02;0.00
58973;BME280;44750;52.040;7.472;2023-04-01T02:27:12;99025.16;;;10.03;0.00
58973;BME280;44750;52.040;7.472;2023-04-01T02:32:13;99027.22;;;10.01;0.00
58973;BME280;44750;52.040;7.472;2023-04-01T02:37:15;99044.06;;;10.03;0.00
58973;BME280;44750;52.040;7.472;2023-04-01T02:42:15;99026.97;;;9.96;0.00
58973;BME280;44750;52.040;7.472;2023-04-01T02:47:16;99028.66;;;9.82;0.00
58973;BME280;44750;52.040;7.472;2023-04-01T02:52:16;99036.94;;;9.80;0.00
58973;BME280;44750;52.040;7.472;2023-04-01T02:57:16;99063.50;;;9.92;0.00
58973;BME280;44750;52.040;7.472;2023-04-01T03:02:16;99054.19;;;9.79;0.00
58973;BME280;44750;52.040;7.472;2023-04-01T03:07:17;99057.28;;;9.76;0.00
58973;BME280;44750;52.040;7.472;2023-04-01T03:12:17;99076.81;;;9.78;0.00
58973;BME280;44750;52.040;7.472;2023-04-01T03:17:17;99092.31;;;9.84;0.00
58973;BME280;44750;52.040;7.472;2023-04-01T03:22:18;99101.06;;;9.86;0.00
58973;BME280;44750;52.040;7.472;2023-04-01T03:27:18;99117.28;;;9.86;0.00
58973;BME280;44750;52.040;7.472;2023-04-01T03:32:18;99132.28;;;9.89;0.00
58973;BME280;44750;52.040;7.472;2023-04-01T03:37:18;99146.91;;;9.95;0.00
58973;BME280;44750;52.040;7.472;2023-04-01T03:42:19;99147.75;;;9.95;0.00
58973;BME280;44750;52.040;7.472;2023-04-01T03:47:19;99164.03;;;10.02;0.00
58973;BME280;44750;52.040;7.472;2023-04-01T03:52:19;99158.56;;;9.95;0.00
58973;BME280;44750;52.040;7.472;2023-04-01T03:57:19;99162.19;;;10.02;0.00
58973;BME280;44750;52.040;7.472;2023-04-01T04:02:21;99180.53;;;10.07;0.00
58973;BME280;44750;52.040;7.472;2023-04-01T04:07:21;99167.81;;;10.01;0.00
58973;BME280;44750;52.040;7.472;2023-04-01T04:12:21;99186.53;;;10.02;0.00
58973;BME280;44750;52.040;7.472;2023-04-01T04:17:22;99177.75;;;10.00;0.00
58973;BME280;44750;52.040;7.472;2023-04-01T04:22:22;99191.75;;;10.04;0.00
58973;BME280;44750;52.040;7.472;2023-04-01T04:27:22;99177.28;;;9.97;0.00
58973;BME280;44750;52.040;7.472;2023-04-01T04:32:23;99199.47;;;10.07;0.00
58973;BME280;44750;52.040;7.472;2023-04-01T04:37:23;99184.84;;;10.01;0.00
58973;BME280;44750;52.040;7.472;2023-04-01T04:42:23;99191.06;;;10.02;0.00
58973;BME280;44750;52.040;7.472;2023-04-01T04:47:23;99210.94;;;10.09;0.00
58973;BME280;44750;52.040;7.472;2023-04-01T04:52:24;99218.50;;;10.14;0.00
58973;BME280;44750;52.040;7.472;2023-04-01T04:57:24;99215.78;;;10.14;0.00
58973;BME280;44750;52.040;7.472;2023-04-01T05:02:24;99212.59;;;10.10;0.00
58973;BME280;44750;52.040;7.472;2023-04-01T05:07:24;99191.28;;;10.00;0.00
58973;BME280;44750;52.040;7.472;2023-04-01T05:12:24;99213.38;;;10.04;0.00
58973;BME280;44750;52.040;7.472;2023-04-01T05:17:25;99219.06;;;10.09;0.00
58973;BME280;44750;52.040;7.472;2023-04-01T05:22:25;99231.19;;;10.13;0.00
58973;BME280;44750;52.040;7.472;2023-04-01T05:27:25;99223.25;;;10.12;0.00
58973;BME280;44750;52.040;7.472;2023-04-01T05:32:26;99238.28;;;10.14;0.00
58973;BME280;44750;52.040;7.472;2023-04-01T05:37:26;99208.50;;;9.99;0.00
58973;BME280;44750;52.040;7.472;2023-04-01T05:42:26;99241.63;;;10.16;0.00
58973;BME280;44750;52.040;7.472;2023-04-01T05:47:26;99260.81;;;10.21;0.00
58973;BME280;44750;52.040;7.472;2023-04-01T05:52:27;99249.00;;;10.23;0.00
58973;BME280;44750;52.040;7.472;2023-04-01T05:57:27;99258.41;;;10.27;0.00
58973;BME280;44750;52.040;7.472;2023-04-01T06:02:27;99239.56;;;10.18;0.00
58973;BME280;44750;52.040;7.472;2023-04-01T06:07:27;99256.25;;;10.22;0.00
58973;BME280;44750;52.040;7.472;2023-04-01T06:49:57;99313.47;;;10.64;0.00
58973;BME280;44750;52.040;7.472;2023-04-01T07:00:44;99310.19;;;10.68;0.00
58973;BME280;44750;52.040;7.472;2023-04-01T07:05:46;99306.84;;;10.66;0.00
58973;BME280;44750;52.040;7.472;2023-04-01T07:11:33;99308.56;;;10.74;0.00
58973;BME280;44750;52.040;7.472;2023-04-01T07:16:37;99302.25;;;10.67;0.00
58973;BME280;44750;52.040;7.472;2023-04-01T07:21:43;99304.84;;;10.75;0.00
58973;BME280;44750;52.040;7.472;2023-04-01T07:26:45;99314.25;;;10.79;0.00
58973;BME280;44750;52.040;7.472;2023-04-01T07:37:17;99315.94;;;10.80;0.00
58973;BME280;44750;52.040;7.472;2023-04-01T07:47:54;99311.63;;;10.86;0.00
58973;BME280;44750;52.040;7.472;2023-04-01T08:13:45;99331.56;;;11.15;0.00
58973;BME280;44750;52.040;7.472;2023-04-01T08:24:25;99306.72;;;11.11;0.00
58973;BME280;44750;52.040;7.472;2023-04-01T08:40:40;99308.97;;;11.44;0.00
58973;BME280;44750;52.040;7.472;2023-04-01T08:51:14;99307.66;;;11.62;0.00
58973;BME280;44750;52.040;7.472;2023-04-01T08:56:23;99269.78;;;11.47;0.00
58973;BME280;44750;52.040;7.472;2023-04-01T09:07:06;99260.31;;;11.58;0.00
58973;BME280;44750;52.040;7.472;2023-04-01T09:22:25;99230.44;;;11.79;0.00
58973;BME280;44750;52.040;7.472;2023-04-01T09:27:43;99214.22;;;11.86;0.00
58973;BME280;44750;52.040;7.472;2023-04-01T10:00:26;99110.28;;;12.07;0.00
58973;BME280;44750;52.040;7.472;2023-04-01T10:22:21;99070.06;;;12.17;0.00
58973;BME280;44750;52.040;7.472;2023-04-01T10:33:27;99077.47;;;12.64;0.00
58973;BME280;44750;52.040;7.472;2023-04-01T10:44:04;99041.75;;;12.80;0.00
58973;BME280;44750;52.040;7.472;2023-04-01T10:54:49;98981.00;;;12.75;0.00
58973;BME280;44750;52.040;7.472;2023-04-01T11:00:15;98965.72;;;12.80;0.00
58973;BME280;44750;52.040;7.472;2023-04-01T11:05:49;98922.97;;;12.56;0.00
58973;BME280;44750;52.040;7.472;2023-04-01T11:16:47;98922.31;;;12.60;0.00
58973;BME280;44750;52.040;7.472;2023-04-01T11:32:54;98917.69;;;12.87;0.00
58973;BME280;44750;52.040;7.472;2023-04-01T11:38:15;98907.00;;;12.99;0.00
58973;BME280;44750;52.040;7.472;2023-04-01T12:05:04;98875.56;;;13.37;0.00
58973;BME280;44750;52.040;7.472;2023-04-01T12:10:19;98864.16;;;13.53;0.00
58973;BME280;44750;52.040;7.472;2023-04-01T12:15:29;98851.31;;;13.67;0.00
58973;BME280;44750;52.040;7.472;2023-04-01T12:20:57;98823.56;;;13.91;0.00
58973;BME280;44750;52.040;7.472;2023-04-01T12:26:43;98767.53;;;13.83;0.00
58973;BME280;44750;52.040;7.472;2023-04-01T12:37:37;98679.69;;;13.82;0.00
58973;BME280;44750;52.040;7.472;2023-04-01T12:42:56;98655.53;;;13.93;5.50
58973;BME280;44750;52.040;7.472;2023-04-01T13:31:29;98546.00;;;13.67;29.92
58973;BME280;44750;52.040;7.472;2023-04-01T13:58:10;98604.53;;;13.19;14.22
58973;BME280;44750;52.040;7.472;2023-04-01T14:13:59;98674.09;;;12.95;6.55
58973;BME280;44750;52.040;7.472;2023-04-01T14:24:32;98715.44;;;12.97;0.48
58973;BME280;44750;52.040;7.472;2023-04-01T14:35:17;98767.34;;;12.75;0.00
58973;BME280;44750;52.040;7.472;2023-04-01T14:51:18;98820.91;;;12.28;0.00
58973;BME280;44750;52.040;7.472;2023-04-01T14:56:41;98874.31;;;12.20;0.00
58973;BME280;44750;52.040;7.472;2023-04-01T15:02:02;98906.81;;;11.94;0.00
58973;BME280;44750;52.040;7.472;2023-04-01T15:07:34;98960.66;;;11.97;0.00
58973;BME280;44750;52.040;7.472;2023-04-01T15:12:50;98994.34;;;11.74;0.00
58973;BME280;44750;52.040;7.472;2023-04-01T15:18:05;99030.19;;;11.63;0.00
58973;BME280;44750;52.040;7.472;2023-04-01T15:23:19;99092.09;;;11.66;0.00
58973;BME280;44750;52.040;7.472;2023-04-01T15:39:48;99203.94;;;11.46;0.00
58973;BME280;44750;52.040;7.472;2023-04-01T15:55:48;99298.88;;;11.38;0.00
58973;BME280;44750;52.040;7.472;2023-04-01T16:06:37;99344.16;;;11.23;0.00
58973;BME280;44750;52.040;7.472;2023-04-01T16:17:34;99404.38;;;11.25;0.00
58973;BME280;44750;52.040;7.472;2023-04-01T16:22:31;99424.31;;;11.17;0.00
58973;BME280;44750;52.040;7.472;2023-04-01T16:27:49;99445.59;;;11.20;0.00
58973;BME280;44750;52.040;7.472;2023-04-01T16:33:20;99470.53;;;11.15;0.00
58973;BME280;44750;52.040;7.472;2023-04-01T16:38:26;99505.72;;;11.15;0.00
58973;BME280;44750;52.040;7.472;2023-04-01T16:43:48;99490.59;;;10.76;0.00
58973;BME280;44750;52.040;7.472;2023-04-01T16:59:36;99574.44;;;10.38;0.00
58973;BME280;44750;52.040;7.472;2023-04-01T17:04:45;99599.66;;;10.30;0.00
58973;BME280;44750;52.040;7.472;2023-04-01T17:10:02;99631.84;;;10.17;0.00
58973;BME280;44750;52.040;7.472;2023-04-01T17:20:43;99656.22;;;10.09;0.00
58973;BME280;44750;52.040;7.472;2023-04-01T17:36:36;99705.88;;;9.68;0.00
58973;BME280;44750;52.040;7.472;2023-04-01T17:41:53;99755.16;;;9.70;0.00
58973;BME280;44750;52.040;7.472;2023-04-01T17:47:00;99764.28;;;9.77;0.00
58973;BME280;44750;52.040;7.472;2023-04-01T17:52:23;99784.56;;;9.73;0.00
58973;BME280;44750;52.040;7.472;2023-04-01T17:57:51;99762.94;;;9.57;0.00
58973;BME280;44750;52.040;7.472;2023-04-01T18:03:13;99781.88;;;9.40;0.00
58973;BME280;44750;52.040;7.472;2023-04-01T18:25:01;99851.41;;;9.30;0.00
58973;BME280;44750;52.040;7.472;2023-04-01T18:30:15;99833.75;;;8.93;0.00
58973;BME280;44750;52.040;7.472;2023-04-01T18:35:47;99863.78;;;8.90;0.00
58973;BME280;44750;52.040;7.472;2023-04-01T18:51:54;99918.28;;;8.59;0.00
58973;BME280;44750;52.040;7.472;2023-04-01T18:57:04;99947.59;;;8.53;0.00
58973;BME280;44750;52.040;7.472;2023-04-01T19:07:52;99948.84;;;8.23;0.00
58973;BME280;44750;52.040;7.472;2023-04-01T19:13:23;99992.97;;;8.40;0.00
58973;BME280;44750;52.040;7.472;2023-04-01T19:18:43;99977.44;;;8.16;0.00
58973;BME280;44750;52.040;7.472;2023-04-01T19:34:48;100030.44;;;8.25;0.00
58973;BME280;44750;52.040;7.472;2023-04-01T20:00:25;100022.31;;;7.71;0.00
58973;BME280;44750;52.040;7.472;2023-04-01T20:06:35;100045.81;;;7.79;0.00
58973;BME280;44750;52.040;7.472;2023-04-01T20:16:15;100060.59;;;7.75;0.00
58973;BME280;44750;52.040;7.472;2023-04-01T20:21:33;100096.28;;;7.77;0.00
58973;BME280;44750;52.040;7.472;2023-04-01T20:26:38;100082.97;;;7.47;0.00
58973;BME280;44750;52.040;7.472;2023-04-01T20:31:43;100113.16;;;7.51;0.00
58973;BME280;44750;52.040;7.472;2023-04-01T20:37:00;100130.91;;;7.44;0.00
58973;BME280;44750;52.040;7.472;2023-04-01T20:42:27;100138.44;;;7.30;0.00
58973;BME280;44750;52.040;7.472;2023-04-01T20:52:46;100128.69;;;7.19;0.00
58973;BME280;44750;52.040;7.472;2023-04-01T21:09:05;100141.88;;;7.13;0.00
58973;BME280;44750;52.040;7.472;2023-04-01T21:20:00;100124.63;;;7.06;0.00
58973;BME280;44750;52.040;7.472;2023-04-01T21:30:54;100116.75;;;6.75;0.00
58973;BME280;44750;52.040;7.472;2023-04-01T21:57:18;100180.72;;;6.71;0.00
58973;BME280;44750;52.040;7.472;2023-04-01T22:13:11;100169.53;;;6.56;0.00
58973;BME280;44750;52.040;7.472;2023-04-01T22:18:40;100169.94;;;6.51;0.00
58973;BME280;44750;52.040;7.472;2023-04-01T22:34:14;100180.09;;;6.18;0.00
58973;BME280;44750;52.040;7.472;2023-04-01T22:39:25;100194.53;;;6.17;0.00
58973;BME280;44750;52.040;7.472;2023-04-01T22:49:48;100189.97;;;6.08;0.00
58973;BME280;44750;52.040;7.472;2023-04-01T22:54:55;100212.59;;;6.15;0.00
58973;BME280;44750;52.040;7.472;2023-04-01T23:00:06;100208.22;;;6.14;0.00
58973;BME280;44750;52.040;7.472;2023-04-01T23:05:12;100200.91;;;5.95;0.00
58973;BME280;44750;52.040;7.472;2023-04-01T23:10:30;100206.72;;;5.91;0.00
58973;BME280;44750;52.040;7.472;2023-04-01T23:15:36;100220.00;;;5.92;0.00
58973;BME280;44750;52.040;7.472;2023-04-01T23:20:58;100245.75;;;5.95;0.00
58973;BME280;44750;52.040;7.472;2023-04-01T23:26:11;100259.00;;;5.86;0.00
58973;BME280;44750;52.040;7.472;2023-04-01T23:31:33;100250.25;;;5.63;0.00
58973;BME280;44750;52.040;7.472;2023-04-01T23:36:38;100261.31;;;5.70;0.00
58973;BME280;44750;52.040;7.472;2023-04-01T23:41:40;100273.75;;;5.71;0.00
58973;BME280;44750;52.040;7.472;2023-04-01T23:46:42;100270.88;;;5.63;0.00
58973;BME280;44750;52.040;7.472;2023-04-01T23:52:25;100290.66;;;5.62;0.00
58973;BME280;44750;52.040;7.472;2023-04-01T23:57:30;100322.16;;;5.81;0.00
